Gold Beach, OR (97444)

6:22 PM PST on December 03, 2016 (GMT -0800)
KF7MWX | | Change Station

Elev 56 ft 42.41 °N, 124.42 °W | Updated 6 seconds ago

Clear
Clear
48.2 °F
Feels Like 48 °F
N
2.2
Wind Variable Wind from SE
Gusts 3.8 mph

Today
High -- | Low -- °F
--% Chance of Precip.
Yesterday
High -- | Low -- °F
Precip. -- in
Pressure 30.38 in
Visibility 10.0 miles
Clouds Clear
Windchill 48 °F
Dew Point 48 °F
Humidity 99%
Rainfall 0.00 in
Snow Depth Not available.
7:30 AM 4:45 PM
Waxing Crescent, 19% visible
METAR KBOK 040156Z AUTO 35003KT 10SM CLR 09/07 A3032 RMK AO2 SLP285 T00940072
Pressure 30.38 in
Visibility 10.0 miles
Clouds Clear
Windchill 48 °F
Dew Point 48 °F
Humidity 99%
Rainfall 0.00 in
Snow Depth Not available.
7:30 AM 4:45 PM
Waxing Crescent, 19% visible
METAR KBOK 040156Z AUTO 35003KT 10SM CLR 09/07 A3032 RMK AO2 SLP285 T00940072

10-Day Weather Forecast

Almanac

Astronomy

Dec. 03, 2016 Rise Set
Actual Time
Civil Twilight
Nautical Twilight
Astronomical Twilight
Moon
Length of Visible Light
Length of Day
Tomorrow will be .
, % of the Moon is Illuminated

Today's Extremes

State Highs State Lows

Community

WunderPhotos

Upload Photos

1,955,562 photos uploaded!

WunderBlog® & News

Nearby

Air Quality

  Air Quality AQ Index Pollutant
Not available.

Snow Depth

Station Depth Elevation

Earthquake Activity

City Distance Mag. Time & Date
Minimum magnitude displayed is 2.5.

Coastal Water Temperatures

Place Temperature

Stations

Nearby Weather Stations

Station Location Temp. Windchill Dew Point Humidity Wind Precip. Elev Updated Type
                   

Watches & Warnings

There are currently no watches in effect.